createdAt,value
2018-12-25T00:03:05.329Z,-1.00
2018-12-25T00:05:46.005Z,-1.00
2018-12-25T00:08:26.985Z,-1.10
2018-12-25T00:14:09.499Z,-1.00
2018-12-25T00:20:07.817Z,-0.90
2018-12-25T00:22:48.570Z,-1.00
2018-12-25T00:25:28.994Z,-1.00
2018-12-25T00:28:10.365Z,-0.90
2018-12-25T00:30:52.396Z,-0.90
2018-12-25T00:33:33.044Z,-0.90
2018-12-25T00:36:13.652Z,-0.50
2018-12-25T00:38:54.297Z,-1.00
2018-12-25T00:41:35.086Z,-1.00
2018-12-25T00:44:15.618Z,-0.80
2018-12-25T00:46:56.173Z,-1.00
2018-12-25T00:49:39.706Z,-1.00
2018-12-25T00:52:21.026Z,-1.00
2018-12-25T00:54:51.009Z,-1.00
2018-12-25T00:57:39.173Z,-1.00
2018-12-25T01:00:19.557Z,-1.00
2018-12-25T01:03:00.097Z,-1.10
2018-12-25T01:05:40.742Z,-1.10
2018-12-25T01:08:21.421Z,-1.00
2018-12-25T01:11:02.209Z,-1.00
2018-12-25T01:13:43.042Z,-1.00
2018-12-25T01:16:23.921Z,-1.00
2018-12-25T01:19:04.720Z,-0.90
2018-12-25T01:21:45.517Z,-0.90
2018-12-25T01:24:25.912Z,-0.90
2018-12-25T01:27:06.642Z,-0.90
2018-12-25T01:29:47.087Z,-0.90
2018-12-25T01:32:27.413Z,-1.00
2018-12-25T01:35:08.225Z,-1.00
2018-12-25T01:37:49.570Z,-1.00
2018-12-25T01:40:29.876Z,-1.10
2018-12-25T01:43:10.629Z,-1.10
2018-12-25T01:45:51.105Z,-1.20
2018-12-25T01:48:31.903Z,-1.20
2018-12-25T01:51:00.713Z,-1.20
2018-12-25T01:53:48.721Z,-1.30
2018-12-25T01:56:29.690Z,-1.40
2018-12-25T01:59:10.497Z,-1.40
2018-12-25T02:01:51.271Z,-0.80
2018-12-25T02:04:31.875Z,-1.50
2018-12-25T02:07:12.633Z,-1.50
2018-12-25T02:09:53.429Z,-1.60
2018-12-25T02:12:32.518Z,-1.50
2018-12-25T02:15:13.527Z,-1.60
2018-12-25T02:17:54.374Z,-1.50
2018-12-25T02:20:35.748Z,-1.50
2018-12-25T02:23:16.674Z,-1.60
2018-12-25T02:25:57.250Z,-1.70
2018-12-25T02:28:37.776Z,-1.80
2018-12-25T02:31:19.077Z,-1.80
2018-12-25T02:33:59.632Z,-1.80
2018-12-25T02:36:40.049Z,-1.80
2018-12-25T02:39:21.082Z,-1.80
2018-12-25T02:42:02.305Z,-1.80
2018-12-25T02:44:43.639Z,-1.80
2018-12-25T02:47:23.959Z,-1.90
2018-12-25T02:50:04.494Z,-1.90
2018-12-25T02:52:44.836Z,-2.00
2018-12-25T02:55:25.627Z,-2.00
2018-12-25T02:58:06.377Z,-1.90
2018-12-25T03:00:47.501Z,-1.90
2018-12-25T03:03:28.203Z,-1.80
2018-12-25T03:06:08.590Z,-1.80
2018-12-25T03:08:49.276Z,-1.90
2018-12-25T03:11:29.944Z,-1.90
2018-12-25T03:14:10.579Z,-1.90
2018-12-25T03:16:51.193Z,-2.10
2018-12-25T03:19:31.706Z,-2.10
2018-12-25T03:22:00.514Z,-2.20
2018-12-25T03:24:48.530Z,-2.30
2018-12-25T03:27:29.834Z,-2.30
2018-12-25T03:30:10.787Z,-2.20
2018-12-25T03:32:51.240Z,-2.20
2018-12-25T03:35:32.064Z,-2.20
2018-12-25T03:38:13.070Z,-2.20
2018-12-25T03:40:53.670Z,-2.30
2018-12-25T03:43:34.521Z,-2.40
2018-12-25T03:46:15.318Z,-2.40
2018-12-25T03:48:55.759Z,-2.40
2018-12-25T03:51:36.322Z,-2.40
2018-12-25T03:54:16.886Z,-2.30
2018-12-25T03:56:57.531Z,-2.40
2018-12-25T03:59:37.924Z,-2.40
2018-12-25T04:02:18.596Z,-2.40
2018-12-25T04:04:59.251Z,-2.40
2018-12-25T04:07:40.138Z,-2.40
2018-12-25T04:10:20.728Z,-2.50
2018-12-25T04:13:01.508Z,-2.50
2018-12-25T04:15:42.068Z,-2.50
2018-12-25T04:18:22.611Z,-2.50
2018-12-25T04:21:03.531Z,-2.60
2018-12-25T04:23:44.427Z,-2.70
2018-12-25T04:26:25.184Z,-2.70
2018-12-25T04:29:07.394Z,-2.90
2018-12-25T04:31:48.469Z,-2.80
2018-12-25T04:34:29.105Z,-2.80
2018-12-25T04:37:09.894Z,-2.80
2018-12-25T04:39:50.727Z,-2.80
2018-12-25T04:42:31.368Z,-2.70
2018-12-25T04:45:12.034Z,-2.70
2018-12-25T04:47:52.607Z,-2.70
2018-12-25T04:50:33.723Z,-2.70
2018-12-25T04:53:14.882Z,-2.60
2018-12-25T04:55:55.579Z,-2.80
2018-12-25T04:58:36.282Z,-2.80
2018-12-25T05:01:16.802Z,-2.90
2018-12-25T05:03:57.399Z,-2.80
2018-12-25T05:06:38.083Z,-2.90
2018-12-25T05:09:07.628Z,-2.90
2018-12-25T05:11:55.649Z,-2.90
2018-12-25T05:14:36.472Z,-3.00
2018-12-25T05:17:17.444Z,-3.00
2018-12-25T05:19:57.949Z,-3.10
2018-12-25T05:22:38.740Z,-3.10
2018-12-25T05:25:19.684Z,-3.10
2018-12-25T05:28:00.256Z,-3.00
2018-12-25T05:30:40.894Z,-2.90
2018-12-25T05:33:21.740Z,-3.00
2018-12-25T05:36:02.440Z,-3.00
2018-12-25T05:38:43.093Z,-3.00
2018-12-25T05:41:23.781Z,-3.00
2018-12-25T05:44:04.232Z,-3.00
2018-12-25T05:46:35.463Z,-3.00
2018-12-25T05:49:23.862Z,-3.00
2018-12-25T05:52:11.910Z,-3.10
2018-12-25T05:54:52.415Z,-3.00
2018-12-25T05:57:31.486Z,-3.10
2018-12-25T06:00:12.644Z,-3.10
2018-12-25T06:02:53.631Z,-3.10
2018-12-25T06:05:34.409Z,-3.10
2018-12-25T06:08:14.925Z,-3.10
2018-12-25T06:10:55.844Z,-3.20
2018-12-25T06:13:36.921Z,-3.20
2018-12-25T06:16:17.745Z,-2.80
2018-12-25T06:18:58.076Z,-3.20
2018-12-25T06:21:38.617Z,-3.20
2018-12-25T06:24:19.251Z,-3.20
2018-12-25T06:26:59.911Z,-3.40
2018-12-25T06:29:40.766Z,-3.30
2018-12-25T06:32:21.550Z,-3.40
2018-12-25T06:35:02.353Z,-3.30
2018-12-25T06:37:43.218Z,-3.30
2018-12-25T06:40:24.474Z,-3.30
2018-12-25T06:43:04.903Z,-3.10
2018-12-25T06:45:45.336Z,-3.10
2018-12-25T06:48:25.921Z,-3.10
2018-12-25T06:51:07.009Z,-3.10
2018-12-25T06:53:47.787Z,-3.10
2018-12-25T06:56:28.498Z,-3.10
2018-12-25T06:59:09.498Z,-3.00
2018-12-25T07:01:49.901Z,-3.00
2018-12-25T07:04:30.665Z,-2.90
2018-12-25T07:07:11.020Z,-2.80
2018-12-25T07:09:51.871Z,-2.80
2018-12-25T07:12:32.886Z,-2.70
2018-12-25T07:15:13.469Z,-2.60
2018-12-25T07:17:54.080Z,-2.50
2018-12-25T07:20:35.259Z,-2.30
2018-12-25T07:23:15.776Z,-2.40
2018-12-25T07:25:56.607Z,-2.40
2018-12-25T07:28:37.239Z,-2.30
2018-12-25T07:31:17.964Z,-2.30
2018-12-25T07:33:58.598Z,-2.40
2018-12-25T07:36:39.010Z,-2.60
2018-12-25T07:39:20.170Z,-1.50
2018-12-25T07:42:00.744Z,-2.50
2018-12-25T07:44:29.553Z,-2.40
2018-12-25T07:46:58.476Z,-2.40
2018-12-25T07:49:46.526Z,-2.30
2018-12-25T07:52:27.632Z,-2.20
2018-12-25T07:55:08.462Z,-2.30
2018-12-25T07:57:49.501Z,-2.30
2018-12-25T08:00:30.422Z,-3.20
2018-12-25T08:03:11.326Z,-2.20
2018-12-25T08:05:53.481Z,-2.30
2018-12-25T08:08:34.089Z,-2.30
2018-12-25T08:11:14.836Z,-2.20
2018-12-25T08:13:55.691Z,-2.10
2018-12-25T08:16:36.285Z,-2.10
2018-12-25T08:19:17.546Z,-2.10
2018-12-25T08:21:58.233Z,-2.10
2018-12-25T08:24:38.897Z,-2.10
2018-12-25T08:27:19.750Z,-1.90
2018-12-25T08:30:00.565Z,-1.70
2018-12-25T08:32:41.452Z,-1.80
2018-12-25T08:35:22.351Z,-1.80
2018-12-25T08:38:03.313Z,-1.80
2018-12-25T08:40:44.227Z,-1.90
2018-12-25T08:43:25.038Z,-1.80
2018-12-25T08:46:05.883Z,-1.80
2018-12-25T08:48:46.753Z,-1.90
2018-12-25T08:51:28.022Z,-1.80
2018-12-25T08:54:09.431Z,-1.70
2018-12-25T08:56:49.942Z,-1.70
2018-12-25T08:59:31.886Z,-1.60
2018-12-25T09:02:12.441Z,-1.50
2018-12-25T09:07:36.430Z,-1.50
2018-12-25T09:12:59.385Z,-1.50
2018-12-25T09:15:39.986Z,-1.40
2018-12-25T09:18:20.738Z,-0.50
2018-12-25T09:21:01.594Z,-1.60
2018-12-25T09:23:42.496Z,-1.60
2018-12-25T09:26:23.159Z,-1.60
2018-12-25T09:29:03.767Z,-1.50
2018-12-25T09:31:44.404Z,-1.30
2018-12-25T09:34:25.151Z,-1.30
2018-12-25T09:37:05.901Z,-1.10
2018-12-25T09:39:46.835Z,-0.90
2018-12-25T09:42:27.453Z,-0.90
2018-12-25T09:45:08.924Z,-0.80
2018-12-25T09:47:49.526Z,-0.80
